Terminal Aerodrome Forecast
Issued by NWS

Home | Current Version | Previous Version | Text Only | Print | Product List | Glossary On
Versions: 1 2 3 4 5 6 7 8 9 10 11 12 13 14 15 16 17 18 19 20 21 22 23 24 25 26 27 28 29 30 31 32 33 34 35 36 37 38 39 40 41
000
FTUS44 KHGX 270306 AAB
TAFSGR
TAF AMD
KSGR 270306Z 2703/2724 15010KT P6SM VCTS BKN018CB OVC100
     FM270400 VRB04KT P6SM BKN050 BKN250
     FM271500 07006KT P6SM SCT030 BKN250
     FM271800 10008KT P6SM VCTS SCT040CB BKN250
     FM272300 12008KT P6SM BKN250=

USA.gov is the U.S. government's official web portal to all federal, state and local government web resources and services.